Time;durP1;ratioP1;P1;durP2;ratioP2;P2;SDS_P1;SDS_P2;PMS_P1;PMS_P2;Temp;Humidity;BMP_temperature;BMP_pressure;BME280_temperature;BME280_humidity;BME280_pressure;Samples;Min_cycle;Max_cycle;Signal;HPM_P1;HPM_P2
2022/11/26 00:01:20;;;;;;;9.45;4.90;;;20.30;99.90;;;;;;4245201;27;20266;-74
2022/11/26 00:03:23;;;;;;;10.75;5.00;;;20.30;99.90;;;;;;4246456;27;20664;-74
2022/11/26 00:05:27;;;;;;;11.70;5.28;;;20.30;99.90;;;;;;4231629;27;20214;-74
2022/11/26 00:07:32;;;;;;;10.95;4.82;;;20.30;99.90;;;;;;4229235;28;20561;-74
2022/11/26 00:09:34;;;;;;;8.20;4.55;;;20.30;99.90;;;;;;4243899;27;20266;-74
2022/11/26 00:11:38;;;;;;;10.00;4.93;;;20.30;99.90;;;;;;4241090;27;20209;-74
2022/11/26 00:13:40;;;;;;;10.35;5.50;;;20.30;99.90;;;;;;4243543;27;20274;-74
2022/11/26 00:15:43;;;;;;;8.07;5.22;;;20.30;99.90;;;;;;4239986;28;20312;-74
2022/11/26 00:17:45;;;;;;;7.30;4.93;;;20.20;99.90;;;;;;4242397;27;20216;-74
2022/11/26 00:19:48;;;;;;;9.32;4.95;;;20.20;99.90;;;;;;4239581;27;20233;-74
2022/11/26 00:21:50;;;;;;;8.23;4.97;;;20.30;99.90;;;;;;4228677;28;20217;-74
2022/11/26 00:23:54;;;;;;;8.80;5.32;;;20.20;99.90;;;;;;4234111;28;20261;-74
2022/11/26 00:26:00;;;;;;;9.63;5.53;;;20.20;99.90;;;;;;4231144;28;20217;-74
2022/11/26 00:28:04;;;;;;;9.82;5.18;;;20.20;99.90;;;;;;4245209;27;20608;-73
2022/11/26 00:30:15;;;;;;;8.48;4.72;;;20.20;99.90;;;;;;4230449;28;20213;-74
2022/11/26 00:32:19;;;;;;;8.18;5.45;;;20.20;99.90;;;;;;4228933;28;20941;-74
2022/11/26 00:34:21;;;;;;;9.10;5.00;;;20.20;99.90;;;;;;4233142;28;20597;-74
2022/11/26 00:36:27;;;;;;;9.18;5.28;;;20.20;99.90;;;;;;4243465;28;20661;-74
2022/11/26 00:38:30;;;;;;;11.18;5.60;;;20.20;99.90;;;;;;4233601;28;20217;-74
2022/11/26 00:40:33;;;;;;;10.07;5.15;;;20.20;99.90;;;;;;4228892;28;20613;-74
2022/11/26 00:42:37;;;;;;;10.75;4.97;;;20.20;99.90;;;;;;4229025;28;20223;-74
2022/11/26 00:44:41;;;;;;;7.80;4.82;;;20.20;99.90;;;;;;4228869;28;20222;-74
2022/11/26 00:46:43;;;;;;;11.30;5.50;;;20.20;99.90;;;;;;4232049;28;20217;-74
2022/11/26 00:48:46;;;;;;;8.80;4.88;;;20.20;99.90;;;;;;4245603;28;20270;-74
2022/11/26 00:50:50;;;;;;;9.95;5.18;;;20.20;99.90;;;;;;4245887;28;20242;-74
2022/11/26 00:52:55;;;;;;;9.68;5.18;;;20.10;99.90;;;;;;4239769;28;20214;-74
2022/11/26 00:54:57;;;;;;;8.77;5.18;;;20.10;99.90;;;;;;4229140;28;20259;-74
2022/11/26 00:56:59;;;;;;;9.68;5.03;;;20.10;99.90;;;;;;4239331;28;20217;-74
2022/11/26 00:59:02;;;;;;;9.65;5.50;;;20.10;99.90;;;;;;4245799;28;20293;-74
2022/11/26 01:01:06;;;;;;;8.77;4.97;;;20.10;99.90;;;;;;4245897;28;20266;-74
2022/11/26 01:03:08;;;;;;;7.93;4.93;;;20.10;99.90;;;;;;4245012;28;20714;-74
2022/11/26 01:05:11;;;;;;;10.00;5.57;;;20.10;99.90;;;;;;4245580;27;20619;-74
2022/11/26 01:07:13;;;;;;;7.55;4.70;;;20.10;99.90;;;;;;4245853;28;20286;-74
2022/11/26 01:09:18;;;;;;;10.05;4.82;;;20.10;99.90;;;;;;4233595;28;20215;-74
2022/11/26 01:11:22;;;;;;;9.85;4.90;;;20.10;99.90;;;;;;4218148;28;20265;-74
2022/11/26 01:13:25;;;;;;;10.68;5.05;;;20.10;99.90;;;;;;4226481;28;20274;-74
2022/11/26 01:15:28;;;;;;;9.00;4.97;;;20.10;99.90;;;;;;4229271;28;20217;-74
2022/11/26 01:17:32;;;;;;;8.77;4.95;;;20.10;99.90;;;;;;4228927;28;20283;-74
2022/11/26 01:19:35;;;;;;;7.25;4.40;;;20.10;99.90;;;;;;4230180;28;20694;-73
2022/11/26 01:21:37;;;;;;;8.90;4.82;;;20.00;99.90;;;;;;4245422;27;20229;-74
2022/11/26 01:23:40;;;;;;;8.98;5.05;;;20.10;99.90;;;;;;4245466;28;20209;-74
2022/11/26 01:25:42;;;;;;;9.07;4.75;;;20.00;99.90;;;;;;4245652;28;20556;-74
2022/11/26 01:27:45;;;;;;;9.85;4.60;;;20.00;99.90;;;;;;4230658;28;20217;-74
2022/11/26 01:29:47;;;;;;;9.07;4.43;;;20.10;99.90;;;;;;4239426;28;20250;-74
2022/11/26 01:31:50;;;;;;;7.35;4.53;;;20.00;99.90;;;;;;4234471;28;20213;-74
2022/11/26 01:33:53;;;;;;;11.73;4.60;;;20.00;99.90;;;;;;4246874;27;20209;-74
2022/11/26 01:35:56;;;;;;;7.30;4.55;;;20.10;99.90;;;;;;4262228;27;20246;-74
2022/11/26 01:37:59;;;;;;;7.68;4.38;;;20.00;99.90;;;;;;4246989;27;20262;-74
2022/11/26 01:40:01;;;;;;;9.90;5.07;;;20.00;99.90;;;;;;4245841;27;20241;-74
2022/11/26 01:42:10;;;;;;;8.40;4.70;;;20.00;99.90;;;;;;4248392;27;20209;-74
2022/11/26 01:44:18;;;;;;;10.02;5.28;;;20.00;99.90;;;;;;4239475;27;20507;-74
2022/11/26 01:46:22;;;;;;;11.80;5.22;;;20.00;99.90;;;;;;4236805;27;20289;-74
2022/11/26 01:48:28;;;;;;;9.25;4.85;;;20.00;99.90;;;;;;4248484;27;20924;-74
2022/11/26 01:50:53;;;;;;;6.82;4.68;;;20.00;99.90;;;;;;4247870;27;20270;-74
2022/11/26 01:52:57;;;;;;;10.27;4.70;;;19.90;99.90;;;;;;4248548;27;20209;-74
2022/11/26 01:55:00;;;;;;;9.65;4.95;;;20.00;99.90;;;;;;4230888;27;20222;-74
2022/11/26 01:57:09;;;;;;;7.57;4.57;;;19.90;99.90;;;;;;4242424;27;20217;-74
2022/11/26 01:59:18;;;;;;;9.50;4.97;;;19.90;99.90;;;;;;4227092;28;20230;-74
2022/11/26 02:01:21;;;;;;;7.28;4.07;;;19.90;99.90;;;;;;4230475;28;20258;-74
2022/11/26 02:03:24;;;;;;;9.32;4.82;;;19.90;99.90;;;;;;4231112;28;20259;-74
2022/11/26 02:05:31;;;;;;;9.20;4.47;;;19.90;99.90;;;;;;4230741;28;20213;-74
2022/11/26 02:07:36;;;;;;;7.95;4.63;;;19.90;99.90;;;;;;4230970;28;20221;-74
2022/11/26 02:09:39;;;;;;;8.80;4.97;;;19.90;99.90;;;;;;4245742;27;20266;-74
2022/11/26 02:11:42;;;;;;;9.32;4.90;;;19.90;99.90;;;;;;4233114;27;20270;-74
2022/11/26 02:13:47;;;;;;;8.77;4.38;;;19.90;99.90;;;;;;4230320;28;20286;-74
2022/11/26 02:15:59;;;;;;;9.88;4.80;;;19.90;99.90;;;;;;4230338;28;20247;-74
2022/11/26 02:18:06;;;;;;;10.18;4.32;;;19.90;99.90;;;;;;4227796;28;20252;-74
2022/11/26 02:20:40;;;;;;;8.45;4.78;;;19.90;99.90;;;;;;4230647;28;20274;-73
2022/11/26 02:23:26;;;;;;;9.68;4.28;;;19.90;99.90;;;;;;4237479;27;20209;-74
2022/11/26 02:25:45;;;;;;;10.30;4.35;;;19.90;99.90;;;;;;4181344;28;20285;-74
2022/11/26 02:28:03;;;;;;;9.02;4.70;;;19.80;99.90;;;;;;4235950;27;20267;-74
2022/11/26 02:30:09;;;;;;;5.95;4.00;;;19.80;99.90;;;;;;4230647;28;20239;-74
2022/11/26 02:32:17;;;;;;;10.60;4.43;;;19.80;99.90;;;;;;4243133;27;20221;-74
2022/11/26 02:34:28;;;;;;;7.53;3.75;;;19.80;99.90;;;;;;4235870;27;20205;-74
2022/11/26 02:36:35;;;;;;;6.63;4.15;;;19.80;99.90;;;;;;4238364;27;20214;-74
2022/11/26 02:38:39;;;;;;;7.57;3.88;;;19.80;99.90;;;;;;4235042;27;20266;-74
2022/11/26 02:40:41;;;;;;;8.27;4.20;;;19.80;99.90;;;;;;4236910;27;20229;-74
2022/11/26 02:42:43;;;;;;;10.23;4.80;;;19.80;99.90;;;;;;4246588;27;20254;-74
2022/11/26 02:44:46;;;;;;;11.27;4.68;;;19.80;99.90;;;;;;4246172;27;20217;-74
2022/11/26 02:46:55;;;;;;;8.57;4.30;;;19.80;99.90;;;;;;4234013;27;20220;-74
2022/11/26 02:48:58;;;;;;;7.55;4.35;;;19.80;99.90;;;;;;4235415;27;20212;-74
2022/11/26 02:51:04;;;;;;;8.32;4.10;;;19.80;99.90;;;;;;4235003;27;20263;-74
2022/11/26 02:53:08;;;;;;;7.50;4.55;;;19.80;99.90;;;;;;4235483;27;20253;-74
2022/11/26 02:55:13;;;;;;;7.55;4.53;;;19.80;99.90;;;;;;4235330;27;20274;-74
2022/11/26 02:57:18;;;;;;;8.40;4.22;;;19.80;99.90;;;;;;4241203;27;20217;-74
2022/11/26 02:59:20;;;;;;;7.22;3.70;;;19.80;99.90;;;;;;4232408;27;20266;-74
2022/11/26 03:01:30;;;;;;;9.05;4.38;;;19.70;99.90;;;;;;4236303;27;20245;-74
2022/11/26 03:03:38;;;;;;;8.43;4.70;;;19.70;99.90;;;;;;4239365;27;20221;-74
2022/11/26 03:05:42;;;;;;;9.63;4.28;;;19.70;99.90;;;;;;4238608;27;20209;-74
2022/11/26 03:07:47;;;;;;;8.85;4.50;;;19.70;99.90;;;;;;4240603;27;20734;-74
2022/11/26 03:09:52;;;;;;;7.65;4.20;;;19.80;99.90;;;;;;4241833;27;20250;-74
2022/11/26 03:11:54;;;;;;;8.10;4.68;;;19.70;99.90;;;;;;4240554;27;20611;-74
2022/11/26 03:13:56;;;;;;;7.38;4.25;;;19.70;99.90;;;;;;4238918;27;20258;-74
2022/11/26 03:15:59;;;;;;;10.57;4.65;;;19.70;99.90;;;;;;4244242;27;20733;-74
2022/11/26 03:18:01;;;;;;;7.28;4.40;;;19.70;99.90;;;;;;4244647;27;20246;-74
2022/11/26 03:20:06;;;;;;;9.00;4.50;;;19.70;99.90;;;;;;4243449;27;20270;-74
2022/11/26 03:22:09;;;;;;;10.45;4.10;;;19.70;99.90;;;;;;4243912;27;20657;-74
2022/11/26 03:24:11;;;;;;;9.93;4.22;;;19.70;99.90;;;;;;4245354;27;20661;-74
2022/11/26 03:26:13;;;;;;;8.60;4.15;;;19.70;99.90;;;;;;4242838;27;20225;-74
2022/11/26 03:28:16;;;;;;;8.38;4.43;;;19.70;99.90;;;;;;4244021;27;20217;-74
2022/11/26 03:30:18;;;;;;;11.27;5.13;;;19.60;99.90;;;;;;4239949;27;20218;-75
2022/11/26 03:32:21;;;;;;;8.48;4.53;;;19.60;99.90;;;;;;4224544;27;20221;-74
2022/11/26 03:34:23;;;;;;;8.38;4.22;;;19.70;99.90;;;;;;4236910;27;20263;-74
2022/11/26 03:36:26;;;;;;;8.10;4.20;;;19.70;99.90;;;;;;4235279;27;20665;-74
2022/11/26 03:38:29;;;;;;;7.45;4.00;;;19.60;99.90;;;;;;4234021;27;20225;-74
2022/11/26 03:40:31;;;;;;;9.43;4.25;;;19.70;99.90;;;;;;4240027;27;20237;-74
2022/11/26 03:42:34;;;;;;;6.55;4.00;;;19.60;99.90;;;;;;4230406;27;20664;-74
2022/11/26 03:44:36;;;;;;;6.60;4.32;;;19.60;99.90;;;;;;4242342;27;20731;-74
2022/11/26 03:46:39;;;;;;;7.43;3.92;;;19.60;99.90;;;;;;4239926;27;20221;-73
2022/11/26 03:48:41;;;;;;;7.50;3.92;;;19.60;99.90;;;;;;4244849;27;20252;-74
2022/11/26 03:50:44;;;;;;;7.82;3.78;;;19.60;99.90;;;;;;4241506;27;20213;-74
2022/11/26 03:52:48;;;;;;;7.60;3.88;;;19.70;99.90;;;;;;4241234;27;20657;-74
2022/11/26 03:54:50;;;;;;;8.77;4.30;;;19.60;99.90;;;;;;4242206;27;20239;-74
2022/11/26 03:56:52;;;;;;;9.30;4.15;;;19.60;99.90;;;;;;4243599;27;20221;-74
2022/11/26 03:58:55;;;;;;;7.72;4.20;;;19.60;99.90;;;;;;4244999;27;20266;-74
2022/11/26 04:00:57;;;;;;;7.13;4.07;;;19.60;99.90;;;;;;4244883;27;20282;-74
2022/11/26 04:02:59;;;;;;;7.32;3.92;;;19.60;99.90;;;;;;4242207;27;20629;-74
2022/11/26 04:05:01;;;;;;;11.65;4.25;;;19.60;99.90;;;;;;4244003;27;20270;-74
2022/11/26 04:07:04;;;;;;;7.85;4.25;;;19.60;99.90;;;;;;4243601;27;20255;-74
2022/11/26 04:09:08;;;;;;;10.23;4.50;;;19.50;99.90;;;;;;4244242;27;20224;-74
2022/11/26 04:11:10;;;;;;;7.63;4.03;;;19.50;99.90;;;;;;4243628;27;20257;-74
2022/11/26 04:13:12;;;;;;;6.38;4.00;;;19.50;99.90;;;;;;4242854;27;20648;-74
2022/11/26 04:15:15;;;;;;;8.25;4.13;;;19.50;99.90;;;;;;4244045;27;20266;-74
2022/11/26 04:17:17;;;;;;;8.57;4.03;;;19.50;99.90;;;;;;4245449;27;20269;-74
2022/11/26 04:19:19;;;;;;;7.30;4.03;;;19.60;99.90;;;;;;4244867;27;20217;-74
2022/11/26 04:21:22;;;;;;;9.18;4.28;;;19.50;99.90;;;;;;4243689;27;20675;-74
2022/11/26 04:23:24;;;;;;;8.20;4.03;;;19.50;99.90;;;;;;4243828;27;20266;-73
2022/11/26 04:25:28;;;;;;;10.57;3.83;;;19.50;99.90;;;;;;4244485;27;20661;-74
2022/11/26 04:27:30;;;;;;;7.20;3.83;;;19.50;99.90;;;;;;4243898;28;20225;-74
2022/11/26 04:29:32;;;;;;;8.75;4.20;;;19.50;99.90;;;;;;4242562;28;20209;-74
2022/11/26 04:31:35;;;;;;;10.05;4.30;;;19.50;99.90;;;;;;4243719;28;20209;-74
2022/11/26 04:33:37;;;;;;;7.28;3.58;;;19.50;99.90;;;;;;4243611;28;20212;-74
2022/11/26 04:35:39;;;;;;;8.40;3.83;;;19.50;99.90;;;;;;4242259;28;20208;-74
2022/11/26 04:37:42;;;;;;;6.88;3.63;;;19.50;99.90;;;;;;4242101;28;20213;-74
2022/11/26 04:39:44;;;;;;;9.32;4.05;;;19.50;99.90;;;;;;4238873;28;20221;-74
2022/11/26 04:41:48;;;;;;;6.35;3.78;;;19.50;99.90;;;;;;4242734;28;20232;-74
2022/11/26 04:43:51;;;;;;;9.57;4.03;;;19.50;99.90;;;;;;4240723;28;20277;-74
2022/11/26 04:45:53;;;;;;;7.32;4.10;;;19.50;99.90;;;;;;4243541;28;20221;-74
2022/11/26 04:47:55;;;;;;;7.63;3.95;;;19.40;99.90;;;;;;4243345;28;20217;-74
2022/11/26 04:49:58;;;;;;;7.90;3.60;;;19.50;99.90;;;;;;4244061;28;20578;-74
2022/11/26 04:52:00;;;;;;;7.63;3.90;;;19.50;99.90;;;;;;4244271;28;20209;-74
2022/11/26 04:54:02;;;;;;;6.15;3.58;;;19.50;99.90;;;;;;4243629;28;20625;-74
2022/11/26 04:56:05;;;;;;;8.27;3.47;;;19.50;99.90;;;;;;4242991;28;20634;-74
2022/11/26 04:58:08;;;;;;;7.03;3.60;;;19.40;99.90;;;;;;4238298;28;20218;-74
2022/11/26 05:00:12;;;;;;;7.90;4.30;;;19.40;99.90;;;;;;4240043;28;20221;-74
2022/11/26 05:02:14;;;;;;;7.55;3.67;;;19.40;99.90;;;;;;4238357;28;20641;-74
2022/11/26 05:04:17;;;;;;;6.97;3.45;;;19.40;99.90;;;;;;4242410;28;20324;-74
2022/11/26 05:06:19;;;;;;;8.90;4.10;;;19.40;99.90;;;;;;4244443;28;20232;-74
2022/11/26 05:08:21;;;;;;;7.45;3.60;;;19.40;99.90;;;;;;4243329;28;20201;-73
2022/11/26 05:10:23;;;;;;;6.57;3.60;;;19.40;99.90;;;;;;4241205;28;20258;-74
2022/11/26 05:12:26;;;;;;;8.15;3.65;;;19.40;99.90;;;;;;4243394;28;20239;-74
2022/11/26 05:14:30;;;;;;;9.07;3.80;;;19.40;99.90;;;;;;4244964;27;20217;-74
2022/11/26 05:16:32;;;;;;;7.30;3.55;;;19.40;99.90;;;;;;4246827;27;20217;-74
2022/11/26 05:18:34;;;;;;;7.80;3.60;;;19.40;99.90;;;;;;4246554;27;20577;-74
2022/11/26 05:20:37;;;;;;;6.85;3.70;;;19.40;99.90;;;;;;4244405;27;20285;-74
2022/11/26 05:22:39;;;;;;;7.05;3.50;;;19.40;99.90;;;;;;4246938;27;20237;-74
2022/11/26 05:24:41;;;;;;;9.20;3.78;;;19.40;99.90;;;;;;4240415;27;20274;-73
2022/11/26 05:26:43;;;;;;;7.25;3.47;;;19.40;99.90;;;;;;4237950;27;20275;-74
2022/11/26 05:28:46;;;;;;;7.57;3.30;;;19.40;99.90;;;;;;4246284;27;20258;-73
2022/11/26 05:30:50;;;;;;;6.28;3.38;;;19.40;99.90;;;;;;4242632;27;20213;-74
2022/11/26 05:32:52;;;;;;;6.63;3.63;;;19.40;99.90;;;;;;4244429;27;20689;-74
2022/11/26 05:34:54;;;;;;;6.53;3.60;;;19.40;99.90;;;;;;4246953;27;20250;-74
2022/11/26 05:36:57;;;;;;;6.70;3.63;;;19.40;99.90;;;;;;4243937;27;20213;-73
2022/11/26 05:38:59;;;;;;;8.38;3.95;;;19.40;99.90;;;;;;4245052;27;20665;-73
2022/11/26 05:41:01;;;;;;;6.53;3.47;;;19.40;99.90;;;;;;4245935;27;20240;-75
2022/11/26 05:43:04;;;;;;;8.13;3.40;;;19.30;99.90;;;;;;4246613;27;20212;-74
2022/11/26 05:45:07;;;;;;;8.15;3.42;;;19.40;99.90;;;;;;4246548;27;20278;-74
2022/11/26 05:47:10;;;;;;;6.65;3.28;;;19.40;99.90;;;;;;4244742;27;20258;-74
2022/11/26 05:49:13;;;;;;;6.18;3.30;;;19.30;99.90;;;;;;4245940;27;20224;-74
2022/11/26 05:51:15;;;;;;;5.72;3.25;;;19.30;99.90;;;;;;4246307;27;21563;-74
2022/11/26 05:53:17;;;;;;;6.72;3.50;;;19.30;99.90;;;;;;4245743;27;20224;-74
2022/11/26 05:55:20;;;;;;;8.02;3.63;;;19.30;99.90;;;;;;4244905;27;20272;-74
2022/11/26 05:57:22;;;;;;;7.72;3.42;;;19.30;99.90;;;;;;4246728;27;20269;-74
2022/11/26 05:59:25;;;;;;;6.90;3.60;;;19.30;99.90;;;;;;4246758;27;20217;-74
2022/11/26 06:01:27;;;;;;;6.00;3.63;;;19.30;99.90;;;;;;4246318;27;20376;-74
2022/11/26 06:03:31;;;;;;;7.20;3.22;;;19.30;99.90;;;;;;4245270;27;20221;-74
2022/11/26 06:05:33;;;;;;;7.20;3.60;;;19.30;99.90;;;;;;4243925;27;20225;-74
2022/11/26 06:07:36;;;;;;;6.60;3.30;;;19.30;99.90;;;;;;4246098;27;20603;-74
2022/11/26 06:09:38;;;;;;;9.00;3.33;;;19.30;99.90;;;;;;4246072;27;20240;-74
2022/11/26 06:11:40;;;;;;;6.50;3.75;;;19.30;99.90;;;;;;4242578;27;20209;-74
2022/11/26 06:13:43;;;;;;;6.95;3.42;;;19.30;99.90;;;;;;4246380;27;20274;-74
2022/11/26 06:15:45;;;;;;;9.23;4.07;;;19.20;99.90;;;;;;4246891;27;20221;-74
2022/11/26 06:17:47;;;;;;;8.00;3.50;;;19.20;99.90;;;;;;4245676;27;20217;-75
2022/11/26 06:19:51;;;;;;;9.23;3.75;;;19.30;99.90;;;;;;4245041;27;20217;-74
2022/11/26 06:21:53;;;;;;;6.72;3.72;;;19.20;99.90;;;;;;4245786;27;20233;-74
2022/11/26 06:23:56;;;;;;;6.13;4.03;;;19.30;99.90;;;;;;4243393;27;20221;-74
2022/11/26 06:25:59;;;;;;;8.10;3.72;;;19.20;99.90;;;;;;4231042;27;20287;-74
2022/11/26 06:28:01;;;;;;;9.05;4.07;;;19.20;99.90;;;;;;4240065;27;20213;-74
2022/11/26 06:30:05;;;;;;;6.35;3.80;;;19.20;99.90;;;;;;4239889;27;20280;-74
2022/11/26 06:32:07;;;;;;;8.65;3.92;;;19.20;99.90;;;;;;4235156;27;20231;-74
2022/11/26 06:34:09;;;;;;;9.50;3.90;;;19.20;99.90;;;;;;4235183;27;20553;-74
2022/11/26 06:36:13;;;;;;;8.52;3.63;;;19.20;99.90;;;;;;4241702;27;20217;-74
2022/11/26 06:38:15;;;;;;;6.65;3.67;;;19.20;99.90;;;;;;4245447;27;20615;-74
2022/11/26 06:40:20;;;;;;;6.50;3.83;;;19.20;99.90;;;;;;4246501;27;20221;-74
2022/11/26 06:42:23;;;;;;;8.82;3.83;;;19.20;99.90;;;;;;4243984;27;20310;-74
2022/11/26 06:44:25;;;;;;;9.07;4.10;;;19.20;99.90;;;;;;4243843;27;20218;-74
2022/11/26 06:46:27;;;;;;;6.90;3.53;;;19.20;99.90;;;;;;4244464;27;20221;-74
2022/11/26 06:48:30;;;;;;;9.40;3.92;;;19.20;99.90;;;;;;4244452;27;20270;-74
2022/11/26 06:50:33;;;;;;;7.95;3.83;;;19.20;99.90;;;;;;4244738;27;20265;-74
2022/11/26 06:52:36;;;;;;;7.53;3.20;;;19.20;99.90;;;;;;4245316;27;20229;-73
2022/11/26 06:54:39;;;;;;;9.88;4.15;;;19.10;99.90;;;;;;4244824;27;20221;-73
2022/11/26 06:56:41;;;;;;;7.93;4.13;;;19.20;99.90;;;;;;4242870;27;20242;-75
2022/11/26 06:58:45;;;;;;;9.00;3.65;;;19.20;99.90;;;;;;4245011;27;20305;-73
2022/11/26 07:00:47;;;;;;;9.32;3.75;;;19.20;99.90;;;;;;4244910;27;20266;-74
2022/11/26 07:02:51;;;;;;;8.77;3.53;;;19.10;99.90;;;;;;4244145;27;20245;-74
2022/11/26 07:04:53;;;;;;;7.95;3.83;;;19.10;99.90;;;;;;4242473;27;20266;-74
2022/11/26 07:06:56;;;;;;;7.15;3.70;;;19.10;99.90;;;;;;4245010;27;20566;-74
2022/11/26 07:09:04;;;;;;;7.38;3.20;;;19.10;99.90;;;;;;4243133;27;20239;-74
2022/11/26 07:11:06;;;;;;;7.55;3.42;;;19.10;99.90;;;;;;4245764;27;20273;-74
2022/11/26 07:13:09;;;;;;;7.10;3.55;;;19.10;99.90;;;;;;4246093;27;20254;-73
2022/11/26 07:15:12;;;;;;;7.25;3.58;;;19.10;99.90;;;;;;4245382;27;20213;-73
2022/11/26 07:17:14;;;;;;;6.13;3.80;;;19.10;99.90;;;;;;4245578;27;20290;-74
2022/11/26 07:19:16;;;;;;;9.65;4.15;;;19.10;99.90;;;;;;4232522;27;20217;-74
2022/11/26 07:21:19;;;;;;;7.68;3.90;;;19.10;99.90;;;;;;4240120;27;20236;-75
2022/11/26 07:23:22;;;;;;;7.13;3.95;;;19.10;99.90;;;;;;4240376;27;20233;-74
2022/11/26 07:25:25;;;;;;;8.05;3.50;;;19.10;99.90;;;;;;4240761;27;20221;-74
2022/11/26 07:27:28;;;;;;;8.80;3.45;;;19.10;99.90;;;;;;4244484;27;20301;-73
2022/11/26 07:29:30;;;;;;;7.22;3.80;;;19.10;99.90;;;;;;4245608;27;20217;-74
2022/11/26 07:31:32;;;;;;;6.60;3.45;;;19.10;99.90;;;;;;4236011;27;20289;-74
2022/11/26 07:33:35;;;;;;;9.18;3.65;;;19.10;99.90;;;;;;4240017;27;20262;-74
2022/11/26 07:35:38;;;;;;;7.75;3.88;;;19.10;99.90;;;;;;4232972;27;20235;-74
2022/11/26 07:37:40;;;;;;;6.07;3.78;;;19.10;99.90;;;;;;4241768;27;20246;-74
2022/11/26 07:39:42;;;;;;;8.25;3.85;;;19.10;99.90;;;;;;4231241;27;20262;-74
2022/11/26 07:41:46;;;;;;;9.07;3.80;;;19.10;99.90;;;;;;4244428;27;20273;-74
2022/11/26 07:43:48;;;;;;;8.85;3.65;;;19.10;99.90;;;;;;4246421;27;20278;-74
2022/11/26 07:45:51;;;;;;;6.57;4.00;;;19.10;99.90;;;;;;4239268;27;20605;-74
2022/11/26 07:47:53;;;;;;;7.93;4.07;;;19.10;99.90;;;;;;4239455;27;20217;-74
2022/11/26 07:49:55;;;;;;;8.07;3.72;;;19.10;99.90;;;;;;4245932;27;20277;-74
2022/11/26 07:51:58;;;;;;;6.43;3.15;;;19.10;99.90;;;;;;4245184;27;20277;-74
2022/11/26 07:54:04;;;;;;;8.35;4.15;;;19.10;99.90;;;;;;4244514;27;20217;-74
2022/11/26 07:56:07;;;;;;;6.13;3.33;;;19.10;99.90;;;;;;4245084;27;20205;-74
2022/11/26 07:58:11;;;;;;;7.80;3.78;;;19.10;99.90;;;;;;4245301;27;20208;-74
2022/11/26 08:00:14;;;;;;;8.20;3.85;;;19.10;99.90;;;;;;4245257;27;20216;-74
2022/11/26 08:02:17;;;;;;;9.27;3.83;;;19.10;99.90;;;;;;4244335;27;20213;-74
2022/11/26 08:04:19;;;;;;;6.88;3.22;;;19.10;99.90;;;;;;4245481;27;20258;-74
2022/11/26 08:06:25;;;;;;;7.03;3.85;;;19.10;99.90;;;;;;4245270;27;20216;-74
2022/11/26 08:08:27;;;;;;;8.55;3.90;;;19.10;99.90;;;;;;4243475;27;20209;-74
2022/11/26 08:10:29;;;;;;;9.23;3.63;;;19.10;99.90;;;;;;4242864;27;20294;-74
2022/11/26 08:12:32;;;;;;;8.35;3.95;;;19.10;99.90;;;;;;4245056;27;20221;-74
2022/11/26 08:14:35;;;;;;;8.32;3.90;;;19.10;99.90;;;;;;4245393;27;20217;-74
2022/11/26 08:16:38;;;;;;;8.20;3.50;;;19.10;99.90;;;;;;4244782;27;20225;-74
2022/11/26 08:18:41;;;;;;;9.30;3.63;;;19.10;99.90;;;;;;4244737;27;20633;-74
2022/11/26 08:20:43;;;;;;;9.20;3.80;;;19.10;99.90;;;;;;4244929;27;20580;-74
2022/11/26 08:22:46;;;;;;;7.57;3.50;;;19.10;99.90;;;;;;4243904;27;20278;-74
2022/11/26 08:24:49;;;;;;;6.63;3.13;;;19.10;99.90;;;;;;4244863;27;20229;-74
2022/11/26 08:26:51;;;;;;;7.65;3.70;;;19.10;99.90;;;;;;4243880;27;20236;-74
2022/11/26 08:28:53;;;;;;;9.70;3.72;;;19.10;99.90;;;;;;4244728;27;20611;-74
2022/11/26 08:31:02;;;;;;;8.38;3.38;;;19.10;99.90;;;;;;4232124;28;20259;-74
2022/11/26 08:33:05;;;;;;;6.05;3.15;;;19.10;99.90;;;;;;4239721;28;20209;-74
2022/11/26 08:35:08;;;;;;;7.13;3.53;;;19.10;99.90;;;;;;4244952;28;20282;-74
2022/11/26 08:37:10;;;;;;;6.05;3.40;;;19.10;99.90;;;;;;4244993;28;20266;-74
2022/11/26 08:39:13;;;;;;;7.80;3.50;;;19.10;99.90;;;;;;4244617;28;20208;-74
2022/11/26 08:41:16;;;;;;;9.32;3.55;;;19.10;99.90;;;;;;4244326;28;20220;-74
2022/11/26 08:43:18;;;;;;;7.32;3.30;;;19.10;99.90;;;;;;4243711;28;20237;-73
2022/11/26 08:45:21;;;;;;;7.85;3.88;;;19.10;99.90;;;;;;4245280;28;20213;-74
2022/11/26 08:47:24;;;;;;;7.47;3.70;;;19.10;99.90;;;;;;4244781;28;20270;-74
2022/11/26 08:49:27;;;;;;;8.05;3.58;;;19.10;99.90;;;;;;4243230;27;20270;-73
2022/11/26 08:51:29;;;;;;;7.03;3.55;;;19.10;99.90;;;;;;4246912;27;20725;-74
2022/11/26 08:53:33;;;;;;;8.65;3.92;;;19.10;99.90;;;;;;4247587;27;20213;-73
2022/11/26 08:55:35;;;;;;;9.98;3.85;;;19.10;99.90;;;;;;4248201;27;20724;-74
2022/11/26 08:57:37;;;;;;;6.90;3.58;;;19.10;99.90;;;;;;4248371;27;20797;-74
2022/11/26 08:59:39;;;;;;;6.85;3.22;;;19.10;99.90;;;;;;4245308;27;20277;-74
2022/11/26 09:01:42;;;;;;;9.13;3.58;;;19.10;99.90;;;;;;4244022;27;20274;-73
2022/11/26 09:03:47;;;;;;;5.68;3.30;;;19.10;99.90;;;;;;4247885;27;20274;-74
2022/11/26 09:05:50;;;;;;;7.40;3.28;;;19.10;99.90;;;;;;4244843;27;20258;-73
2022/11/26 09:07:53;;;;;;;7.18;3.17;;;19.10;99.90;;;;;;4246887;27;20622;-74
2022/11/26 09:09:55;;;;;;;7.30;3.70;;;19.10;99.90;;;;;;4247498;27;20213;-74
2022/11/26 09:11:59;;;;;;;6.72;3.20;;;19.10;99.90;;;;;;4248361;27;20216;-74
2022/11/26 09:14:02;;;;;;;7.13;3.10;;;19.10;99.90;;;;;;4246541;27;20731;-74
2022/11/26 09:16:05;;;;;;;7.30;3.35;;;19.20;99.90;;;;;;4246554;27;20225;-73
2022/11/26 09:18:07;;;;;;;8.32;3.70;;;19.10;99.90;;;;;;4246317;27;20619;-74
2022/11/26 09:20:11;;;;;;;8.50;3.58;;;19.10;99.90;;;;;;4246035;27;20263;-73
2022/11/26 09:22:14;;;;;;;10.10;3.33;;;19.20;99.90;;;;;;4244782;27;20216;-73
2022/11/26 09:24:17;;;;;;;6.57;2.90;;;19.10;99.90;;;;;;4246973;27;20233;-73
2022/11/26 09:26:20;;;;;;;6.57;3.05;;;19.20;99.90;;;;;;4247552;27;20221;-73
2022/11/26 09:28:22;;;;;;;9.05;3.95;;;19.10;99.90;;;;;;4247575;27;20221;-73
2022/11/26 09:30:25;;;;;;;5.55;3.10;;;19.20;99.90;;;;;;4247699;27;20205;-73
2022/11/26 09:32:27;;;;;;;6.45;3.67;;;19.20;99.90;;;;;;4247156;27;20221;-73
2022/11/26 09:34:29;;;;;;;8.20;3.50;;;19.10;99.90;;;;;;4245017;27;20205;-73
2022/11/26 09:36:33;;;;;;;6.32;3.53;;;19.20;99.90;;;;;;4247233;27;20217;-73
2022/11/26 09:38:36;;;;;;;6.82;3.50;;;19.20;99.90;;;;;;4246381;27;20217;-73
2022/11/26 09:40:47;;;;;;;6.90;3.38;;;19.10;99.90;;;;;;4247478;27;20221;-73
2022/11/26 09:42:59;;;;;;;5.50;2.88;;;19.10;99.90;;;;;;4246127;27;20668;-73
2022/11/26 09:45:12;;;;;;;7.28;3.22;;;19.10;99.90;;;;;;4247381;27;20273;-73
2022/11/26 09:47:18;;;;;;;7.32;3.83;;;19.10;99.90;;;;;;4245432;27;20609;-73
2022/11/26 09:49:21;;;;;;;5.53;3.10;;;19.10;99.90;;;;;;4247437;27;20673;-73
2022/11/26 09:51:23;;;;;;;7.22;3.53;;;19.20;99.90;;;;;;4245278;27;21528;-73
2022/11/26 09:53:32;;;;;;;7.30;3.15;;;19.10;99.90;;;;;;4245475;27;20238;-73
2022/11/26 09:55:37;;;;;;;6.47;2.78;;;19.10;99.90;;;;;;4243498;27;20209;-73
2022/11/26 09:57:43;;;;;;;7.97;3.45;;;19.10;99.90;;;;;;4238453;27;20797;-73
2022/11/26 09:59:46;;;;;;;8.20;3.65;;;19.10;99.90;;;;;;4244321;27;20209;-73
2022/11/26 10:01:48;;;;;;;8.65;3.90;;;19.10;99.90;;;;;;4245301;27;20273;-73
2022/11/26 10:03:51;;;;;;;7.00;3.53;;;19.10;99.90;;;;;;4246593;27;20653;-73
2022/11/26 10:05:58;;;;;;;8.57;3.40;;;19.10;99.90;;;;;;4247079;27;20257;-73
2022/11/26 10:08:07;;;;;;;7.57;3.55;;;19.10;99.90;;;;;;4244676;27;20209;-73
2022/11/26 10:10:18;;;;;;;6.72;3.05;;;19.10;99.90;;;;;;4246527;27;20221;-73
2022/11/26 10:12:32;;;;;;;5.88;3.15;;;19.10;99.90;;;;;;4243981;27;20220;-73
2022/11/26 10:14:50;;;;;;;8.25;3.55;;;19.10;99.90;;;;;;4245303;27;20217;-73
2022/11/26 10:17:07;;;;;;;6.72;3.42;;;19.10;99.90;;;;;;4244452;27;20279;-73
2022/11/26 10:19:18;;;;;;;8.55;3.10;;;19.10;99.90;;;;;;4244917;27;20220;-73
2022/11/26 10:21:24;;;;;;;7.65;3.35;;;19.10;99.90;;;;;;4243914;27;20704;-73
2022/11/26 10:23:31;;;;;;;8.48;3.50;;;19.10;99.90;;;;;;4245861;27;20224;-73
2022/11/26 10:25:40;;;;;;;7.35;3.15;;;19.10;99.90;;;;;;4245015;27;20273;-73
2022/11/26 10:27:42;;;;;;;7.95;3.47;;;19.10;99.90;;;;;;4244481;27;20212;-73
2022/11/26 10:29:49;;;;;;;6.32;3.30;;;19.10;99.90;;;;;;4244836;27;20258;-73
2022/11/26 10:31:56;;;;;;;7.57;3.33;;;19.10;99.90;;;;;;4243238;27;20213;-73
2022/11/26 10:34:01;;;;;;;6.93;3.40;;;19.10;99.90;;;;;;4245344;27;20222;-73
2022/11/26 10:36:07;;;;;;;10.18;3.78;;;19.10;99.90;;;;;;4245977;27;20278;-73
2022/11/26 10:38:11;;;;;;;6.30;3.10;;;19.10;99.90;;;;;;4244481;27;20281;-73
2022/11/26 10:40:23;;;;;;;5.75;3.00;;;19.10;99.90;;;;;;4243260;27;20262;-74
2022/11/26 10:42:26;;;;;;;6.70;3.30;;;19.10;99.90;;;;;;4245324;27;20209;-73
2022/11/26 10:44:38;;;;;;;6.70;3.13;;;19.10;99.90;;;;;;4246336;27;20298;-73